createdAt,value
2023-03-17T00:01:01.078Z,16.88
2023-03-17T00:03:27.427Z,16.82
2023-03-17T00:05:54.099Z,16.77
2023-03-17T00:08:20.411Z,16.72
2023-03-17T00:10:46.698Z,16.68
2023-03-17T00:13:13.268Z,16.65
2023-03-17T00:15:39.570Z,16.58
2023-03-17T00:18:05.894Z,16.56
2023-03-17T00:20:32.510Z,16.51
2023-03-17T00:22:58.916Z,16.46
2023-03-17T00:25:25.345Z,16.42
2023-03-17T00:27:51.683Z,16.38
2023-03-17T00:30:17.980Z,16.34
2023-03-17T00:32:44.391Z,16.29
2023-03-17T00:35:10.731Z,16.25
2023-03-17T00:37:36.994Z,16.22
2023-03-17T00:40:03.293Z,16.18
2023-03-17T00:42:29.600Z,16.15
2023-03-17T00:44:56.270Z,16.10
2023-03-17T00:47:23.381Z,16.07
2023-03-17T00:49:49.782Z,16.03
2023-03-17T00:52:16.282Z,15.99
2023-03-17T00:54:42.703Z,15.97
2023-03-17T00:57:09.015Z,15.92
2023-03-17T00:59:35.344Z,15.88
2023-03-17T01:02:01.735Z,15.84
2023-03-17T01:04:28.131Z,15.81
2023-03-17T01:06:54.468Z,15.77
2023-03-17T01:09:20.994Z,15.73
2023-03-17T01:11:47.318Z,15.70
2023-03-17T01:14:13.872Z,15.66
2023-03-17T01:16:40.224Z,15.61
2023-03-17T01:19:06.550Z,15.57
2023-03-17T01:21:32.965Z,15.53
2023-03-17T01:23:59.285Z,15.58
2023-03-17T01:26:26.145Z,15.66
2023-03-17T01:28:52.498Z,15.65
2023-03-17T01:31:19.025Z,15.61
2023-03-17T01:33:45.337Z,15.56
2023-03-17T01:36:11.875Z,15.51
2023-03-17T01:38:38.214Z,15.45
2023-03-17T01:41:04.571Z,15.42
2023-03-17T01:43:30.945Z,15.37
2023-03-17T01:45:57.586Z,15.33
2023-03-17T01:48:24.177Z,15.28
2023-03-17T01:50:50.497Z,15.24
2023-03-17T01:53:16.929Z,15.21
2023-03-17T01:55:43.234Z,15.20
2023-03-17T01:58:09.613Z,15.18
2023-03-17T02:00:36.009Z,15.16
2023-03-17T02:03:02.404Z,15.14
2023-03-17T02:05:28.751Z,15.12
2023-03-17T02:07:55.124Z,15.09
2023-03-17T02:10:21.508Z,15.07
2023-03-17T02:12:47.883Z,15.04
2023-03-17T02:15:14.278Z,15.03
2023-03-17T02:17:40.608Z,15.00
2023-03-17T02:20:06.985Z,14.97
2023-03-17T02:22:33.296Z,14.95
2023-03-17T02:24:59.546Z,14.92
2023-03-17T02:27:25.969Z,14.90
2023-03-17T02:29:52.312Z,14.88
2023-03-17T02:32:18.623Z,14.85
2023-03-17T02:34:45.481Z,14.83
2023-03-17T02:37:11.799Z,14.81
2023-03-17T02:39:38.152Z,14.79
2023-03-17T02:42:04.570Z,14.77
2023-03-17T02:44:30.971Z,14.74
2023-03-17T02:46:57.275Z,14.72
2023-03-17T02:49:23.603Z,14.70
2023-03-17T02:51:50.043Z,14.68
2023-03-17T02:54:16.297Z,14.66
2023-03-17T02:56:42.940Z,14.63
2023-03-17T02:59:09.292Z,14.61
2023-03-17T03:01:35.679Z,14.60
2023-03-17T03:04:02.018Z,14.58
2023-03-17T03:06:28.326Z,14.57
2023-03-17T03:08:54.791Z,14.55
2023-03-17T03:11:21.105Z,14.54
2023-03-17T03:13:47.459Z,14.52
2023-03-17T03:16:13.866Z,14.50
2023-03-17T03:18:40.335Z,14.48
2023-03-17T03:21:06.662Z,14.46
2023-03-17T03:23:33.010Z,14.45
2023-03-17T03:26:01.353Z,14.44
2023-03-17T03:28:27.682Z,14.42
2023-03-17T03:30:54.243Z,14.40
2023-03-17T03:33:20.667Z,14.37
2023-03-17T03:35:47.031Z,14.36
2023-03-17T03:38:13.361Z,14.34
2023-03-17T03:40:39.623Z,14.31
2023-03-17T03:43:19.910Z,14.30
2023-03-17T03:45:48.029Z,14.27
2023-03-17T03:48:14.533Z,14.25
2023-03-17T03:50:40.834Z,14.24
2023-03-17T03:53:07.185Z,14.20
2023-03-17T03:55:38.261Z,14.17
2023-03-17T03:58:04.741Z,14.15
2023-03-17T04:00:31.247Z,14.13
2023-03-17T04:02:57.848Z,14.11
2023-03-17T04:05:24.181Z,14.09
2023-03-17T04:07:50.627Z,14.07
2023-03-17T04:10:16.953Z,14.03
2023-03-17T04:12:43.504Z,14.01
2023-03-17T04:15:09.946Z,14.00
2023-03-17T04:17:36.282Z,13.97
2023-03-17T04:20:02.647Z,13.94
2023-03-17T04:22:29.001Z,13.91
2023-03-17T04:24:55.378Z,13.90
2023-03-17T04:27:21.708Z,13.86
2023-03-17T04:29:48.039Z,13.85
2023-03-17T04:32:14.298Z,13.83
2023-03-17T04:34:40.651Z,13.80
2023-03-17T04:37:07.047Z,13.78
2023-03-17T04:39:33.520Z,13.77
2023-03-17T04:41:59.882Z,13.75
2023-03-17T04:44:26.210Z,13.72
2023-03-17T04:46:52.627Z,13.69
2023-03-17T04:49:18.952Z,13.67
2023-03-17T04:51:45.456Z,13.65
2023-03-17T04:54:11.797Z,13.64
2023-03-17T04:56:38.566Z,13.61
2023-03-17T04:59:05.070Z,13.58
2023-03-17T05:01:31.419Z,13.54
2023-03-17T05:04:03.589Z,13.53
2023-03-17T05:06:29.928Z,13.50
2023-03-17T05:08:56.378Z,13.48
2023-03-17T05:11:22.746Z,13.46
2023-03-17T05:13:49.122Z,13.43
2023-03-17T05:16:15.436Z,13.42
2023-03-17T05:18:41.778Z,13.40
2023-03-17T05:21:08.201Z,13.38
2023-03-17T05:23:34.663Z,13.36
2023-03-17T05:26:00.994Z,13.36
2023-03-17T05:28:27.459Z,13.34
2023-03-17T05:30:53.814Z,13.33
2023-03-17T05:33:20.282Z,13.30
2023-03-17T05:35:46.850Z,13.29
2023-03-17T05:38:13.212Z,13.28
2023-03-17T05:40:39.550Z,13.26
2023-03-17T05:43:05.923Z,13.24
2023-03-17T05:45:32.380Z,13.24
2023-03-17T05:47:58.649Z,13.22
2023-03-17T05:50:27.875Z,13.21
2023-03-17T05:52:54.535Z,13.20
2023-03-17T05:55:23.194Z,13.19
2023-03-17T05:57:50.134Z,13.19
2023-03-17T06:00:16.441Z,13.21
2023-03-17T06:02:42.848Z,13.26
2023-03-17T06:05:09.169Z,13.37
2023-03-17T06:07:50.934Z,13.38
2023-03-17T06:10:18.276Z,13.37
2023-03-17T06:12:44.649Z,13.45
2023-03-17T06:15:11.010Z,13.49
2023-03-17T06:17:37.862Z,13.64
2023-03-17T06:20:04.175Z,13.76
2023-03-17T06:22:30.480Z,13.78
2023-03-17T06:24:57.040Z,13.85
2023-03-17T06:27:23.396Z,14.06
2023-03-17T06:29:49.991Z,14.22
2023-03-17T06:32:20.635Z,14.56
2023-03-17T06:34:47.450Z,14.93
2023-03-17T06:37:13.739Z,15.31
2023-03-17T06:39:40.004Z,15.62
2023-03-17T06:42:06.502Z,15.88
2023-03-17T06:44:32.993Z,16.12
2023-03-17T06:46:59.299Z,16.38
2023-03-17T06:49:25.620Z,16.57
2023-03-17T06:51:52.010Z,16.73
2023-03-17T06:54:18.614Z,16.86
2023-03-17T06:56:44.970Z,17.03
2023-03-17T06:59:11.309Z,17.13
2023-03-17T07:01:37.676Z,17.29
2023-03-17T07:04:04.093Z,17.33
2023-03-17T07:06:30.378Z,17.42
2023-03-17T07:08:56.705Z,17.44
2023-03-17T07:11:23.034Z,17.39
2023-03-17T07:13:49.402Z,17.39
2023-03-17T07:16:15.822Z,17.45
2023-03-17T07:18:42.235Z,17.59
2023-03-17T07:21:08.567Z,17.85
2023-03-17T07:23:34.978Z,18.07
2023-03-17T07:26:01.486Z,18.28
2023-03-17T07:28:27.871Z,18.51
2023-03-17T07:30:54.253Z,18.67
2023-03-17T07:33:20.588Z,18.82
2023-03-17T07:35:47.029Z,19.01
2023-03-17T07:38:13.421Z,19.25
2023-03-17T07:40:39.768Z,19.51
2023-03-17T07:43:06.288Z,19.74
2023-03-17T07:45:32.928Z,19.88
2023-03-17T07:47:59.577Z,19.99
2023-03-17T07:50:25.901Z,20.04
2023-03-17T07:52:52.269Z,20.19
2023-03-17T07:55:22.543Z,20.40
2023-03-17T07:57:48.932Z,20.50
2023-03-17T08:00:15.300Z,20.61
2023-03-17T08:02:41.712Z,20.76
2023-03-17T08:05:08.269Z,20.96
2023-03-17T08:07:34.765Z,21.10
2023-03-17T08:10:01.094Z,21.31
2023-03-17T08:12:27.361Z,21.49
2023-03-17T08:14:53.651Z,21.66
2023-03-17T08:17:19.941Z,21.83
2023-03-17T08:19:46.267Z,22.05
2023-03-17T08:22:12.614Z,22.32
2023-03-17T08:24:38.948Z,22.58
2023-03-17T08:27:05.331Z,22.85
2023-03-17T08:29:31.850Z,23.16
2023-03-17T08:31:58.187Z,23.45
2023-03-17T08:34:24.650Z,23.69
2023-03-17T08:36:51.175Z,23.93
2023-03-17T08:39:17.690Z,24.13
2023-03-17T08:41:44.914Z,24.30
2023-03-17T08:44:11.360Z,24.47
2023-03-17T08:46:37.657Z,24.60
2023-03-17T08:49:04.139Z,24.43
2023-03-17T08:51:30.679Z,24.57
2023-03-17T08:53:57.035Z,24.28
2023-03-17T08:56:23.421Z,24.02
2023-03-17T08:58:49.788Z,24.10
2023-03-17T09:01:16.124Z,24.01
2023-03-17T09:03:42.559Z,24.09
2023-03-17T09:06:08.871Z,24.19
2023-03-17T09:08:35.633Z,23.72
2023-03-17T09:11:01.976Z,23.61
2023-03-17T09:13:28.329Z,23.65
2023-03-17T09:15:54.706Z,23.47
2023-03-17T09:18:22.190Z,23.26
2023-03-17T09:20:48.607Z,23.16
2023-03-17T09:23:14.905Z,22.98
2023-03-17T09:25:41.312Z,22.79
2023-03-17T09:28:07.779Z,22.69
2023-03-17T09:30:34.242Z,22.62
2023-03-17T09:33:00.720Z,22.58
2023-03-17T09:35:27.131Z,22.57
2023-03-17T09:37:53.484Z,22.58
2023-03-17T09:40:19.789Z,22.60
2023-03-17T09:42:46.126Z,22.59
2023-03-17T09:45:12.404Z,22.60
2023-03-17T09:47:40.077Z,22.60
2023-03-17T09:50:07.330Z,22.63
2023-03-17T09:52:33.735Z,22.65
2023-03-17T09:55:00.100Z,22.66
2023-03-17T09:57:26.481Z,22.65
2023-03-17T09:59:52.827Z,22.66
2023-03-17T10:02:19.417Z,22.66
2023-03-17T10:04:45.980Z,22.68
2023-03-17T10:07:12.428Z,22.71
2023-03-17T10:09:39.393Z,22.72
2023-03-17T10:12:05.743Z,22.74
2023-03-17T10:14:32.168Z,22.75
2023-03-17T10:16:58.509Z,22.77
2023-03-17T10:19:24.793Z,22.79
2023-03-17T10:21:51.179Z,22.80
2023-03-17T10:24:17.458Z,22.82
2023-03-17T10:26:43.861Z,22.82
2023-03-17T10:29:10.368Z,22.83
2023-03-17T10:31:36.850Z,22.86
2023-03-17T10:34:03.230Z,22.90
2023-03-17T10:36:29.576Z,22.86
2023-03-17T10:38:55.890Z,22.87
2023-03-17T10:41:22.207Z,22.90
2023-03-17T10:43:48.674Z,22.94
2023-03-17T10:46:14.941Z,22.94
2023-03-17T10:48:41.232Z,22.93
2023-03-17T10:51:07.687Z,22.95
2023-03-17T10:53:33.971Z,22.97
2023-03-17T10:56:00.421Z,22.96
2023-03-17T10:58:26.728Z,22.99
2023-03-17T11:00:53.097Z,22.98
2023-03-17T11:03:19.449Z,22.99
2023-03-17T11:05:45.973Z,23.00
2023-03-17T11:08:12.653Z,23.00
2023-03-17T11:10:39.300Z,23.00
2023-03-17T11:13:05.618Z,23.00
2023-03-17T11:15:31.928Z,22.99
2023-03-17T11:17:58.308Z,23.01
2023-03-17T11:20:24.627Z,23.01
2023-03-17T11:22:51.000Z,22.94
2023-03-17T11:25:17.331Z,23.01
2023-03-17T11:27:43.697Z,23.01
2023-03-17T11:30:10.102Z,23.01
2023-03-17T11:32:36.606Z,22.99
2023-03-17T11:35:03.044Z,22.99
2023-03-17T11:37:29.367Z,22.98
2023-03-17T11:39:55.744Z,22.99
2023-03-17T11:42:22.094Z,22.99
2023-03-17T11:44:48.376Z,22.98
2023-03-17T11:47:14.882Z,22.98
2023-03-17T11:49:41.431Z,22.97
2023-03-17T11:52:07.849Z,22.96
2023-03-17T11:54:35.421Z,22.94
2023-03-17T11:57:01.773Z,22.93
2023-03-17T11:59:28.194Z,22.91
2023-03-17T12:01:54.651Z,22.91
2023-03-17T12:04:20.993Z,22.82
2023-03-17T12:06:47.414Z,22.70
2023-03-17T12:09:13.853Z,22.56
2023-03-17T12:11:40.145Z,22.45
2023-03-17T12:14:06.461Z,22.37
2023-03-17T12:16:32.786Z,22.32
2023-03-17T12:18:59.173Z,22.22
2023-03-17T12:21:25.507Z,22.14
2023-03-17T12:23:51.775Z,22.03
2023-03-17T12:26:18.116Z,21.93
2023-03-17T12:28:44.427Z,21.87
2023-03-17T12:31:10.860Z,21.82
2023-03-17T12:33:37.309Z,21.76
2023-03-17T12:36:03.757Z,21.71
2023-03-17T12:38:30.121Z,21.65
2023-03-17T12:40:56.527Z,21.62
2023-03-17T12:43:22.813Z,21.54
2023-03-17T12:45:49.221Z,21.46
2023-03-17T12:48:15.481Z,21.37
2023-03-17T12:50:41.794Z,21.28
2023-03-17T12:53:08.160Z,21.21
2023-03-17T12:55:34.587Z,21.16
2023-03-17T12:58:00.998Z,21.11
2023-03-17T13:00:27.442Z,21.09
2023-03-17T13:02:53.934Z,21.06
2023-03-17T13:05:20.323Z,21.07
2023-03-17T13:07:46.690Z,21.08
2023-03-17T13:10:13.097Z,21.06
2023-03-17T13:12:39.395Z,21.02
2023-03-17T13:15:05.745Z,21.01
2023-03-17T13:17:32.218Z,20.99
2023-03-17T13:19:58.589Z,20.97
2023-03-17T13:22:24.935Z,20.96
2023-03-17T13:24:51.318Z,20.94
2023-03-17T13:27:17.946Z,20.89
2023-03-17T13:29:44.246Z,20.85
2023-03-17T13:32:10.556Z,20.83
2023-03-17T13:34:36.915Z,20.80
2023-03-17T13:37:03.474Z,20.76
2023-03-17T13:39:30.642Z,20.73
2023-03-17T13:41:59.281Z,20.67
2023-03-17T13:44:27.390Z,20.61
2023-03-17T13:46:53.846Z,20.57
2023-03-17T13:49:20.525Z,20.61
2023-03-17T13:51:59.080Z,20.73
2023-03-17T13:54:26.446Z,20.88
2023-03-17T13:56:52.779Z,20.98
2023-03-17T13:59:19.268Z,21.07
2023-03-17T14:01:45.758Z,21.15
2023-03-17T14:04:12.155Z,21.22
2023-03-17T14:06:38.492Z,21.27
2023-03-17T14:09:04.967Z,21.31
2023-03-17T14:11:31.333Z,21.33
2023-03-17T14:13:57.632Z,21.34
2023-03-17T14:16:24.031Z,21.34
2023-03-17T14:18:50.584Z,21.37
2023-03-17T14:21:17.109Z,21.37
2023-03-17T14:23:43.497Z,21.37
2023-03-17T14:26:09.930Z,21.39
2023-03-17T14:28:36.332Z,21.40
2023-03-17T14:31:03.025Z,21.43
2023-03-17T14:33:30.160Z,21.46
2023-03-17T14:35:56.620Z,21.47
2023-03-17T14:38:23.015Z,21.49
2023-03-17T14:40:49.443Z,21.49
2023-03-17T14:43:15.880Z,21.51
2023-03-17T14:45:42.252Z,21.52
2023-03-17T14:48:08.748Z,21.53
2023-03-17T14:50:35.122Z,21.54
2023-03-17T14:53:01.482Z,21.54
2023-03-17T14:55:27.815Z,21.55
2023-03-17T14:57:54.512Z,21.56
2023-03-17T15:00:20.893Z,21.58
2023-03-17T15:02:47.275Z,21.58
2023-03-17T15:05:13.955Z,21.59
2023-03-17T15:07:40.670Z,21.59
2023-03-17T15:10:07.199Z,21.59
2023-03-17T15:12:33.542Z,21.59
2023-03-17T15:14:59.879Z,21.59
2023-03-17T15:17:26.418Z,21.59
2023-03-17T15:19:55.770Z,21.59
2023-03-17T15:22:22.065Z,21.58
2023-03-17T15:24:48.431Z,21.57
2023-03-17T15:27:14.738Z,21.56
2023-03-17T15:29:41.117Z,21.56
2023-03-17T15:32:07.487Z,21.55
2023-03-17T15:34:34.470Z,21.54
2023-03-17T15:37:00.755Z,21.54
2023-03-17T15:39:27.215Z,21.53
2023-03-17T15:41:53.536Z,21.53
2023-03-17T15:44:19.862Z,21.50
2023-03-17T15:46:46.168Z,21.50
2023-03-17T15:49:12.497Z,21.49
2023-03-17T15:51:38.864Z,21.48
2023-03-17T15:54:05.212Z,21.46
2023-03-17T15:56:31.602Z,21.46
2023-03-17T15:58:57.904Z,21.44
2023-03-17T16:01:27.666Z,21.43
2023-03-17T16:03:54.275Z,21.41
2023-03-17T16:06:20.620Z,21.40
2023-03-17T16:08:46.931Z,21.38
2023-03-17T16:11:13.298Z,21.37
2023-03-17T16:13:39.607Z,21.35
2023-03-17T16:16:06.035Z,21.35
2023-03-17T16:18:32.352Z,21.33
2023-03-17T16:20:58.629Z,21.32
2023-03-17T16:23:24.991Z,21.31
2023-03-17T16:25:52.646Z,21.30
2023-03-17T16:28:20.295Z,21.30
2023-03-17T16:30:46.702Z,21.30
2023-03-17T16:33:13.021Z,21.30
2023-03-17T16:35:39.458Z,21.29
2023-03-17T16:38:05.774Z,21.30
2023-03-17T16:40:35.152Z,21.29
2023-03-17T16:43:01.467Z,21.29
2023-03-17T16:45:27.783Z,21.28
2023-03-17T16:47:55.218Z,21.29
2023-03-17T16:50:21.521Z,21.28
2023-03-17T16:52:47.844Z,21.27
2023-03-17T16:55:14.211Z,21.27
2023-03-17T16:57:40.614Z,21.27
2023-03-17T17:00:07.075Z,21.27
2023-03-17T17:02:33.421Z,21.27
2023-03-17T17:04:59.766Z,21.26
2023-03-17T17:07:26.125Z,21.25
2023-03-17T17:09:52.444Z,21.25
2023-03-17T17:12:18.790Z,21.25
2023-03-17T17:14:45.120Z,21.23
2023-03-17T17:17:11.478Z,21.23
2023-03-17T17:19:37.833Z,21.22
2023-03-17T17:22:04.220Z,21.20
2023-03-17T17:24:30.753Z,21.19
2023-03-17T17:26:57.056Z,21.18
2023-03-17T17:29:23.560Z,21.16
2023-03-17T17:31:49.861Z,21.15
2023-03-17T17:34:16.450Z,21.13
2023-03-17T17:36:42.731Z,21.13
2023-03-17T17:39:09.179Z,21.10
2023-03-17T17:41:35.593Z,21.09
2023-03-17T17:44:01.983Z,21.06
2023-03-17T17:46:28.434Z,21.04
2023-03-17T17:48:54.875Z,21.04
2023-03-17T17:51:21.274Z,21.01
2023-03-17T17:53:47.713Z,20.99
2023-03-17T17:56:14.091Z,20.98
2023-03-17T17:58:40.467Z,20.96
2023-03-17T18:01:06.833Z,20.94
2023-03-17T18:03:33.219Z,20.93
2023-03-17T18:05:59.527Z,20.92
2023-03-17T18:08:25.931Z,20.89
2023-03-17T18:10:52.510Z,20.87
2023-03-17T18:13:19.773Z,20.86
2023-03-17T18:15:46.089Z,20.85
2023-03-17T18:18:12.454Z,20.83
2023-03-17T18:20:38.816Z,20.82
2023-03-17T18:23:05.153Z,20.80
2023-03-17T18:25:31.526Z,20.79
2023-03-17T18:27:57.883Z,20.77
2023-03-17T18:30:24.184Z,20.76
2023-03-17T18:32:50.535Z,20.73
2023-03-17T18:35:16.877Z,20.73
2023-03-17T18:37:43.254Z,20.71
2023-03-17T18:40:14.600Z,20.70
2023-03-17T18:42:41.844Z,20.68
2023-03-17T18:45:08.206Z,20.67
2023-03-17T18:47:34.606Z,20.66
2023-03-17T18:50:01.274Z,20.65
2023-03-17T18:52:27.667Z,20.64
2023-03-17T18:54:54.108Z,20.64
2023-03-17T18:57:20.423Z,20.63
2023-03-17T18:59:46.801Z,20.64
2023-03-17T19:02:13.135Z,20.62
2023-03-17T19:04:41.537Z,20.62
2023-03-17T19:07:07.857Z,20.61
2023-03-17T19:09:34.192Z,20.63
2023-03-17T19:12:00.579Z,20.64
2023-03-17T19:14:32.998Z,20.66
2023-03-17T19:16:59.406Z,20.67
2023-03-17T19:19:29.554Z,20.69
2023-03-17T19:24:48.543Z,20.75
2023-03-17T19:27:17.961Z,20.78
2023-03-17T19:29:44.455Z,20.80
2023-03-17T19:32:11.408Z,20.82
2023-03-17T19:34:38.029Z,20.84
2023-03-17T19:37:04.369Z,20.85
2023-03-17T19:39:30.668Z,20.85
2023-03-17T19:41:56.933Z,20.86
2023-03-17T19:44:23.230Z,20.87
2023-03-17T19:46:49.663Z,20.88
2023-03-17T19:49:16.002Z,20.87
2023-03-17T19:51:42.347Z,20.87
2023-03-17T19:54:08.766Z,20.87
2023-03-17T19:56:35.100Z,20.87
2023-03-17T19:59:01.416Z,20.86
2023-03-17T20:01:28.042Z,20.85
2023-03-17T20:03:54.462Z,20.84
2023-03-17T20:06:20.873Z,20.85
2023-03-17T20:08:47.278Z,20.84
2023-03-17T20:11:13.532Z,20.83
2023-03-17T20:13:39.830Z,20.81
2023-03-17T20:16:06.256Z,20.80
2023-03-17T20:18:32.678Z,20.79
2023-03-17T20:20:59.139Z,20.79
2023-03-17T20:23:25.773Z,20.78
2023-03-17T20:25:52.164Z,20.77
2023-03-17T20:28:18.657Z,20.76
2023-03-17T20:30:45.082Z,20.75
2023-03-17T20:33:11.495Z,20.73
2023-03-17T20:35:37.809Z,20.74
2023-03-17T20:38:04.093Z,20.72
2023-03-17T20:40:30.644Z,20.71
2023-03-17T20:42:57.231Z,20.71
2023-03-17T20:45:23.588Z,20.70
2023-03-17T20:47:49.947Z,20.69
2023-03-17T20:50:16.302Z,20.68
2023-03-17T20:52:42.756Z,20.67
2023-03-17T20:55:09.091Z,20.67
2023-03-17T20:57:35.602Z,20.66
2023-03-17T21:00:02.322Z,20.64
2023-03-17T21:02:28.886Z,20.63
2023-03-17T21:04:55.237Z,20.62
2023-03-17T21:07:21.637Z,20.62
2023-03-17T21:09:48.099Z,20.61
2023-03-17T21:15:06.621Z,20.59
2023-03-17T21:17:33.097Z,20.58
2023-03-17T21:19:59.477Z,20.58
2023-03-17T21:22:25.746Z,20.55
2023-03-17T21:24:52.074Z,20.55
2023-03-17T21:27:18.345Z,20.55
2023-03-17T21:29:44.622Z,20.54
2023-03-17T21:32:10.890Z,20.52
2023-03-17T21:34:37.170Z,20.52
2023-03-17T21:37:03.480Z,20.51
2023-03-17T21:39:29.948Z,20.50
2023-03-17T21:41:56.425Z,20.50
2023-03-17T21:44:22.816Z,20.49
2023-03-17T21:46:49.102Z,20.49
2023-03-17T21:49:15.704Z,20.48
2023-03-17T21:51:42.093Z,20.47
2023-03-17T21:54:08.375Z,20.46
2023-03-17T21:56:35.087Z,20.46
2023-03-17T21:59:01.402Z,20.46
2023-03-17T22:01:27.766Z,20.45
2023-03-17T22:03:54.204Z,20.45
2023-03-17T22:06:20.512Z,20.44
2023-03-17T22:08:46.773Z,20.44
2023-03-17T22:11:13.784Z,20.44
2023-03-17T22:13:40.119Z,20.44
2023-03-17T22:16:06.569Z,20.43
2023-03-17T22:18:33.080Z,20.43
2023-03-17T22:20:59.517Z,20.43
2023-03-17T22:23:25.892Z,20.42
2023-03-17T22:25:52.695Z,20.42
2023-03-17T22:28:19.016Z,20.42
2023-03-17T22:30:45.329Z,20.42
2023-03-17T22:33:11.978Z,20.40
2023-03-17T22:35:38.493Z,20.40
2023-03-17T22:38:05.060Z,20.40
2023-03-17T22:40:31.834Z,20.39
2023-03-17T22:42:58.448Z,20.38
2023-03-17T22:45:24.872Z,20.37
2023-03-17T22:47:51.391Z,20.38
2023-03-17T22:50:17.883Z,20.37
2023-03-17T22:52:44.196Z,20.37
2023-03-17T22:55:10.682Z,20.36
2023-03-17T22:57:37.203Z,20.34
2023-03-17T23:00:03.783Z,20.30
2023-03-17T23:02:30.160Z,20.22
2023-03-17T23:04:56.563Z,20.15
2023-03-17T23:07:22.883Z,20.08
2023-03-17T23:09:49.297Z,20.02
2023-03-17T23:12:15.687Z,19.99
2023-03-17T23:14:42.078Z,19.92
2023-03-17T23:17:08.431Z,19.88
2023-03-17T23:19:34.831Z,19.83
2023-03-17T23:22:01.148Z,19.79
2023-03-17T23:24:27.463Z,19.76
2023-03-17T23:26:53.796Z,19.71
2023-03-17T23:29:20.119Z,19.67
2023-03-17T23:31:46.442Z,19.63
2023-03-17T23:34:12.864Z,19.59
2023-03-17T23:36:39.272Z,19.57
2023-03-17T23:39:05.576Z,19.51
2023-03-17T23:41:31.920Z,19.48
2023-03-17T23:43:58.178Z,19.44
2023-03-17T23:46:24.595Z,19.41
2023-03-17T23:48:50.939Z,19.37
2023-03-17T23:51:17.615Z,19.34
2023-03-17T23:53:43.940Z,19.30
2023-03-17T23:56:10.224Z,19.28
2023-03-17T23:58:36.843Z,19.24
